Time;durP1;ratioP1;P1;durP2;ratioP2;P2;SDS_P1;SDS_P2;PMS_P1;PMS_P2;Temp;Humidity;BMP_temperature;BMP_pressure;BME280_temperature;BME280_humidity;BME280_pressure;Samples;Min_cycle;Max_cycle;Signal;HPM_P1;HPM_P2
2021/11/26 00:00:45;;;;;;;31.60;28.00;;;;;;;6.54;52.53;97006.53;8218842;28;20256;-87
2021/11/26 00:04:49;;;;;;;28.20;25.13;;;;;;;6.76;52.29;97002.13;8229812;28;20311;-86
2021/11/26 00:08:52;;;;;;;29.63;26.37;;;;;;;6.77;52.38;97008.91;8219596;28;20537;-86
2021/11/26 00:13:00;;;;;;;29.30;26.20;;;;;;;6.85;52.08;97001.72;8225445;28;20243;-85
2021/11/26 00:17:05;;;;;;;28.17;24.70;;;;;;;6.84;52.19;96992.31;8230141;28;20242;-85
2021/11/26 00:21:07;;;;;;;30.70;27.40;;;;;;;6.85;51.98;96980.25;8218355;28;20226;-85
2021/11/26 00:25:11;;;;;;;27.93;24.93;;;;;;;6.76;52.23;96980.66;8219586;28;20245;-85
2021/11/26 00:29:16;;;;;;;31.97;27.63;;;;;;;6.81;51.75;96977.00;8218979;28;20238;-84
2021/11/26 00:33:19;;;;;;;29.07;25.97;;;;;;;6.88;51.88;96977.56;8218852;28;20572;-84
2021/11/26 00:37:23;;;;;;;29.30;25.90;;;;;;;6.92;51.43;96976.50;8218825;28;20241;-84
2021/11/26 00:41:26;;;;;;;33.53;27.20;;;;;;;6.94;51.30;96966.16;8218877;28;20238;-84
2021/11/26 00:45:31;;;;;;;29.87;26.53;;;;;;;7.00;51.26;96950.41;8218713;28;20231;-84
2021/11/26 00:49:34;;;;;;;30.37;27.07;;;;;;;6.94;51.67;96948.13;8218591;28;20238;-84
2021/11/26 00:53:37;;;;;;;35.53;27.37;;;;;;;6.79;51.99;96950.50;8218737;28;20243;-84
2021/11/26 00:57:40;;;;;;;32.03;27.73;;;;;;;6.94;51.79;96953.28;8218681;28;20430;-84
2021/11/26 01:01:45;;;;;;;33.07;29.00;;;;;;;6.76;52.21;96944.63;8218101;28;20251;-84
2021/11/26 01:05:49;;;;;;;31.43;26.67;;;;;;;6.71;52.36;96931.16;8218011;28;20275;-84
2021/11/26 01:09:53;;;;;;;29.63;26.17;;;;;;;6.83;52.00;96935.75;8218021;28;20242;-84
2021/11/26 01:13:56;;;;;;;31.23;27.83;;;;;;;6.95;52.16;96930.06;8220415;28;20262;-85
2021/11/26 01:18:02;;;;;;;30.43;27.20;;;;;;;6.76;52.43;96924.06;8223918;28;20258;-86
2021/11/26 01:22:05;;;;;;;30.83;27.57;;;;;;;6.79;52.10;96914.47;8247598;28;20234;-85
2021/11/26 01:26:08;;;;;;;30.97;26.97;;;;;;;6.67;52.48;96915.03;8255574;28;20229;-85
2021/11/26 01:30:21;;;;;;;31.73;28.33;;;;;;;6.72;52.46;96907.94;8255746;28;20241;-85
2021/11/26 01:34:25;;;;;;;32.23;28.10;;;;;;;6.81;52.28;96901.53;8255880;28;20250;-84
2021/11/26 01:38:29;;;;;;;30.40;27.20;;;;;;;6.92;52.27;96909.59;8255296;28;20241;-85
2021/11/26 01:42:32;;;;;;;30.13;26.93;;;;;;;6.69;52.66;96902.09;8255536;28;20264;-85
2021/11/26 01:46:39;;;;;;;31.90;28.23;;;;;;;6.82;52.46;96909.19;8257574;28;20493;-85
2021/11/26 01:50:43;;;;;;;30.83;27.37;;;;;;;6.94;52.44;96912.09;8255621;28;20234;-86
2021/11/26 01:54:47;;;;;;;30.73;27.27;;;;;;;6.92;52.55;96909.59;8255098;28;20241;-85
2021/11/26 01:58:51;;;;;;;30.67;27.27;;;;;;;6.82;52.79;96898.91;8254994;28;20237;-84
2021/11/26 02:02:54;;;;;;;31.60;28.17;;;;;;;6.84;52.54;96886.78;8255063;28;20257;-85
2021/11/26 02:06:59;;;;;;;30.73;27.40;;;;;;;6.77;52.69;96882.81;8254479;28;20249;-82
2021/11/26 02:11:02;;;;;;;30.60;27.03;;;;;;;6.59;53.06;96878.53;8254886;28;20445;-84
2021/11/26 02:15:06;;;;;;;31.27;27.83;;;;;;;6.57;52.95;96875.22;8222273;28;20241;-84
2021/11/26 02:19:10;;;;;;;31.20;27.80;;;;;;;6.80;52.39;96867.25;8222395;28;20242;-85
2021/11/26 02:23:14;;;;;;;32.10;27.40;;;;;;;6.79;52.48;96870.72;8221807;28;20250;-85
2021/11/26 02:27:18;;;;;;;30.73;27.03;;;;;;;6.87;52.47;96861.81;8222178;28;20241;-85
2021/11/26 02:31:21;;;;;;;29.70;26.47;;;;;;;6.84;52.33;96866.19;8222388;28;20396;-85
2021/11/26 02:35:25;;;;;;;32.70;27.87;;;;;;;6.80;52.66;96862.09;8222125;28;20290;-85
2021/11/26 02:39:30;;;;;;;30.07;26.80;;;;;;;6.87;52.46;96854.09;8221751;28;20301;-85
2021/11/26 02:43:33;;;;;;;30.77;27.30;;;;;;;6.91;52.72;96847.88;8221489;28;20234;-85
2021/11/26 02:47:36;;;;;;;32.40;27.17;;;;;;;6.81;52.30;96845.75;8221946;28;20282;-85
2021/11/26 02:51:39;;;;;;;30.47;26.73;;;;;;;6.84;52.38;96837.06;8230527;28;20246;-85
2021/11/26 02:55:45;;;;;;;30.33;26.60;;;;;;;6.69;52.46;96833.47;8221610;28;20231;-85
2021/11/26 02:59:48;;;;;;;28.60;25.50;;;;;;;6.62;52.86;96829.50;8221595;28;20238;-85
2021/11/26 03:03:51;;;;;;;29.17;26.07;;;;;;;6.67;52.76;96827.56;8220834;28;20239;-85
2021/11/26 03:07:54;;;;;;;28.80;25.77;;;;;;;6.88;52.50;96822.31;8220411;28;20246;-85
2021/11/26 03:11:59;;;;;;;31.93;26.20;;;;;;;6.62;53.04;96809.75;8220870;28;20427;-83
2021/11/26 03:16:03;;;;;;;29.40;26.23;;;;;;;6.62;53.03;96803.78;8220597;28;20243;-82
2021/11/26 03:20:07;;;;;;;31.13;26.70;;;;;;;6.66;52.79;96797.56;8219963;28;20529;-83
2021/11/26 03:24:10;;;;;;;29.97;26.33;;;;;;;6.58;53.20;96797.94;8220495;28;20469;-83
2021/11/26 03:28:16;;;;;;;31.20;25.93;;;;;;;6.67;52.47;96798.44;8220466;28;20371;-83
2021/11/26 03:32:19;;;;;;;31.17;26.07;;;;;;;6.71;52.77;96790.50;8220425;28;20245;-84
2021/11/26 03:36:22;;;;;;;31.17;26.13;;;;;;;6.58;53.08;96782.50;8219433;28;20244;-84
2021/11/26 03:40:27;;;;;;;31.87;27.60;;;;;;;6.72;52.71;96765.59;8220069;28;20540;-84
2021/11/26 03:44:31;;;;;;;29.33;26.07;;;;;;;6.52;52.69;96751.94;8219843;28;20239;-84
2021/11/26 03:48:35;;;;;;;30.07;26.27;;;;;;;6.72;52.48;96747.56;8219688;28;20231;-82
2021/11/26 03:52:38;;;;;;;32.13;26.90;;;;;;;6.73;52.59;96744.94;8219828;28;20241;-83
2021/11/26 03:56:42;;;;;;;29.70;26.27;;;;;;;6.72;52.43;96735.56;8219834;28;20239;-82
2021/11/26 04:00:46;;;;;;;31.27;26.63;;;;;;;6.77;52.43;96733.56;8219543;28;20250;-83
2021/11/26 04:04:50;;;;;;;30.40;26.93;;;;;;;6.70;52.54;96734.81;8219519;28;20665;-83
2021/11/26 04:08:53;;;;;;;32.23;27.07;;;;;;;6.75;52.52;96727.69;8219291;28;20239;-83
2021/11/26 04:12:57;;;;;;;31.63;26.77;;;;;;;6.66;52.39;96730.69;8219422;28;20545;-83
2021/11/26 04:17:02;;;;;;;30.63;27.30;;;;;;;6.77;52.50;96728.44;8218909;28;20245;-83
2021/11/26 04:21:05;;;;;;;33.03;26.03;;;;;;;6.77;52.64;96730.19;8218443;28;20271;-83
2021/11/26 04:25:11;;;;;;;30.90;27.53;;;;;;;6.71;52.38;96721.03;8218653;28;20533;-83
2021/11/26 04:29:14;;;;;;;32.27;28.10;;;;;;;6.63;52.89;96725.72;8218875;28;20231;-85
2021/11/26 04:33:18;;;;;;;33.03;27.97;;;;;;;6.68;52.79;96717.75;8218822;28;20246;-85
2021/11/26 04:37:21;;;;;;;30.03;26.83;;;;;;;6.76;52.65;96713.06;8218488;28;20574;-85
2021/11/26 04:41:24;;;;;;;33.93;28.23;;;;;;;6.63;52.76;96711.09;8218496;28;20456;-84
2021/11/26 04:45:27;;;;;;;32.23;28.63;;;;;;;6.75;52.70;96708.84;8218369;28;20289;-84
2021/11/26 04:49:32;;;;;;;33.90;29.13;;;;;;;6.64;52.93;96712.78;8223612;28;20545;-83
2021/11/26 04:53:36;;;;;;;34.87;29.27;;;;;;;6.45;53.13;96702.53;8224949;28;20294;-84
2021/11/26 04:57:39;;;;;;;34.03;28.70;;;;;;;6.68;53.11;96695.44;8224906;28;20238;-83
2021/11/26 05:01:42;;;;;;;34.57;28.37;;;;;;;6.39;53.42;96692.53;8224908;28;20238;-84
2021/11/26 05:05:46;;;;;;;35.23;29.00;;;;;;;6.47;53.63;96684.44;8224749;28;20254;-84
2021/11/26 05:09:49;;;;;;;33.70;29.47;;;;;;;6.50;53.60;96686.06;8224619;28;20423;-84
2021/11/26 05:13:52;;;;;;;36.43;30.47;;;;;;;6.54;53.45;96672.97;8224727;28;20408;-84
2021/11/26 05:17:57;;;;;;;37.50;30.53;;;;;;;6.53;53.40;96671.31;8224190;28;20422;-83
2021/11/26 05:22:02;;;;;;;35.20;29.50;;;;;;;6.63;53.07;96684.56;8224341;28;20281;-85
2021/11/26 05:26:06;;;;;;;33.63;29.00;;;;;;;6.63;53.41;96671.69;8223699;28;20313;-83
2021/11/26 05:30:13;;;;;;;34.57;29.37;;;;;;;6.67;53.04;96669.81;8225713;28;20235;-83
2021/11/26 05:34:16;;;;;;;36.50;29.80;;;;;;;6.63;53.23;96666.53;8230327;28;20552;-83
2021/11/26 05:38:21;;;;;;;32.47;28.77;;;;;;;6.56;53.23;96660.03;8223187;28;20243;-83
2021/11/26 05:42:24;;;;;;;34.10;29.07;;;;;;;6.42;53.91;96661.53;8224754;28;20250;-84
2021/11/26 05:46:27;;;;;;;35.57;30.50;;;;;;;6.29;54.09;96652.75;8222952;28;20231;-85
2021/11/26 05:50:30;;;;;;;37.07;30.73;;;;;;;6.34;54.11;96658.50;8217937;28;20240;-85
2021/11/26 05:54:36;;;;;;;36.00;30.40;;;;;;;6.36;53.89;96664.41;8222333;28;20234;-85
2021/11/26 05:58:39;;;;;;;40.93;32.13;;;;;;;6.35;53.83;96654.19;8221670;28;20241;-84
2021/11/26 06:02:43;;;;;;;37.87;32.13;;;;;;;6.36;53.68;96648.97;8221256;28;20420;-84
2021/11/26 06:06:46;;;;;;;38.30;31.73;;;;;;;6.18;54.28;96642.16;8221763;28;20239;-84
2021/11/26 06:10:51;;;;;;;39.60;33.57;;;;;;;5.92;55.30;96643.34;8222161;28;20235;-86
2021/11/26 06:14:55;;;;;;;39.93;32.20;;;;;;;5.89;55.17;96631.47;8222437;28;20242;-85
2021/11/26 06:18:58;;;;;;;39.33;32.23;;;;;;;6.02;55.35;96631.78;8223303;28;20235;-84
2021/11/26 06:23:01;;;;;;;38.87;33.20;;;;;;;6.05;54.58;96629.88;8221956;28;20553;-85
2021/11/26 06:27:06;;;;;;;38.67;32.40;;;;;;;6.10;55.12;96632.22;8221366;28;20226;-83
2021/11/26 06:31:09;;;;;;;38.30;32.30;;;;;;;6.32;54.31;96634.63;8221668;28;20235;-86
2021/11/26 06:35:15;;;;;;;39.33;32.60;;;;;;;6.41;54.16;96641.84;8204448;28;20290;-84
2021/11/26 06:39:18;;;;;;;38.73;32.03;;;;;;;6.43;54.15;96639.22;8221616;28;20235;-85
2021/11/26 06:43:23;;;;;;;42.73;32.53;;;;;;;6.44;54.07;96639.16;8221507;28;20242;-85
2021/11/26 06:47:26;;;;;;;42.67;33.00;;;;;;;6.41;54.13;96629.00;8221417;28;20238;-85
2021/11/26 06:51:29;;;;;;;42.57;33.83;;;;;;;6.45;54.16;96617.69;8221588;28;20231;-83
2021/11/26 06:55:34;;;;;;;41.33;34.13;;;;;;;6.46;53.74;96621.06;8221712;28;20234;-85
2021/11/26 06:59:39;;;;;;;45.07;34.97;;;;;;;6.36;54.14;96612.13;8221401;28;20246;-83
2021/11/26 07:03:42;;;;;;;41.87;34.73;;;;;;;6.52;53.82;96602.75;8221414;28;20239;-83
2021/11/26 07:07:45;;;;;;;44.73;35.43;;;;;;;6.63;53.76;96600.47;8221159;28;20243;-83
2021/11/26 07:11:48;;;;;;;43.67;35.47;;;;;;;6.55;53.82;96599.19;8220206;28;20246;-83
2021/11/26 07:16:13;;;;;;;45.63;36.70;;;;;;;6.64;53.29;96596.16;8251940;28;20238;-82
2021/11/26 07:20:17;;;;;;;48.20;36.73;;;;;;;6.45;54.45;96585.97;8252371;28;20237;-82
2021/11/26 07:24:20;;;;;;;49.77;37.60;;;;;;;6.63;53.68;96585.03;8252061;28;20244;-83
2021/11/26 07:28:24;;;;;;;49.53;37.53;;;;;;;6.44;54.59;96582.56;8252422;28;20242;-82
2021/11/26 07:32:28;;;;;;;49.03;37.00;;;;;;;6.64;54.45;96580.72;8252301;28;20411;-83
2021/11/26 07:36:31;;;;;;;49.77;38.43;;;;;;;6.53;54.46;96583.00;8251806;28;20552;-83
2021/11/26 07:40:35;;;;;;;47.73;37.43;;;;;;;6.48;54.56;96567.81;8252020;28;20237;-82
2021/11/26 07:44:40;;;;;;;49.47;37.47;;;;;;;6.74;53.92;96575.94;8251768;28;20419;-84
2021/11/26 07:48:45;;;;;;;49.67;37.73;;;;;;;6.54;53.81;96566.69;8251497;28;20250;-83
2021/11/26 07:52:48;;;;;;;48.03;38.00;;;;;;;6.60;54.33;96562.03;8251549;28;20238;-83
2021/11/26 07:56:52;;;;;;;51.77;39.13;;;;;;;6.54;53.87;96553.81;8251610;28;20249;-84
2021/11/26 08:00:55;;;;;;;47.23;37.63;;;;;;;6.62;53.64;96551.69;8251495;28;20241;-82
2021/11/26 08:05:00;;;;;;;47.43;37.57;;;;;;;6.70;53.86;96557.28;8251261;28;20242;-83
2021/11/26 08:09:06;;;;;;;46.10;36.93;;;;;;;6.70;54.16;96544.41;8274329;28;20306;-83
2021/11/26 08:13:10;;;;;;;46.30;35.60;;;;;;;6.71;53.93;96546.06;8246527;28;20505;-83
2021/11/26 08:17:13;;;;;;;42.97;34.67;;;;;;;6.59;53.75;96539.81;8251368;28;20253;-83
2021/11/26 08:21:18;;;;;;;48.03;37.03;;;;;;;6.72;53.72;96529.72;8250308;28;20293;-83
2021/11/26 08:25:25;;;;;;;43.80;34.90;;;;;;;6.83;53.92;96522.28;8251229;28;20264;-83
2021/11/26 08:29:28;;;;;;;44.87;35.33;;;;;;;6.73;53.76;96515.13;8252417;28;20416;-84
2021/11/26 08:33:31;;;;;;;44.50;34.87;;;;;;;6.61;54.04;96506.31;8252168;28;20238;-84
2021/11/26 08:37:36;;;;;;;46.17;35.30;;;;;;;6.70;53.98;96502.41;8252940;28;20238;-84
2021/11/26 08:41:39;;;;;;;42.03;34.10;;;;;;;6.60;53.73;96508.03;8253504;28;20241;-84
2021/11/26 08:45:43;;;;;;;43.67;34.67;;;;;;;6.69;53.58;96504.16;8252396;28;20411;-85
2021/11/26 08:49:46;;;;;;;42.83;33.37;;;;;;;6.61;53.68;96496.84;8252226;28;20241;-84
2021/11/26 08:53:50;;;;;;;43.63;34.73;;;;;;;6.73;53.42;96503.06;8250453;28;20238;-85
2021/11/26 08:57:55;;;;;;;45.10;35.20;;;;;;;6.70;53.77;96497.25;8251517;28;20238;-84
2021/11/26 09:01:58;;;;;;;43.97;35.27;;;;;;;6.71;53.38;96506.66;8251200;28;20241;-85
2021/11/26 09:06:02;;;;;;;43.33;36.37;;;;;;;6.76;53.63;96502.06;8250444;28;20244;-84
2021/11/26 09:10:07;;;;;;;43.27;34.30;;;;;;;6.90;53.16;96496.22;8226267;28;20235;-84
2021/11/26 09:14:10;;;;;;;41.23;33.67;;;;;;;6.91;53.46;96497.88;8219289;28;20246;-84
2021/11/26 09:18:15;;;;;;;42.20;33.97;;;;;;;6.90;53.37;96485.94;8219308;28;20238;-84
2021/11/26 09:22:18;;;;;;;43.77;34.57;;;;;;;6.89;54.13;96486.81;8218981;28;20239;-83
2021/11/26 09:26:23;;;;;;;43.40;34.53;;;;;;;6.94;52.91;96477.13;8218815;28;20265;-85
2021/11/26 09:30:27;;;;;;;44.00;35.73;;;;;;;6.94;53.54;96475.38;8219413;28;20338;-85
2021/11/26 09:34:31;;;;;;;44.33;35.87;;;;;;;6.94;53.59;96479.69;8221821;28;20231;-85
2021/11/26 09:38:34;;;;;;;41.53;35.33;;;;;;;7.08;53.18;96468.66;8228079;28;20227;-84
2021/11/26 09:42:42;;;;;;;45.77;35.60;;;;;;;7.14;52.79;96461.44;8230571;28;20302;-87
2021/11/26 09:46:48;;;;;;;43.70;35.03;;;;;;;7.02;52.89;96451.81;8231474;28;20242;-86
2021/11/26 09:50:51;;;;;;;43.63;35.47;;;;;;;6.77;53.50;96434.28;8239298;28;20241;-85
2021/11/26 09:54:54;;;;;;;44.63;35.87;;;;;;;7.20;52.86;96430.22;8256647;28;20257;-87
2021/11/26 09:58:59;;;;;;;43.97;34.93;;;;;;;7.47;52.01;96427.00;8256902;28;20293;-84
2021/11/26 10:03:03;;;;;;;42.13;35.03;;;;;;;7.57;52.29;96425.56;8259845;28;20284;-85
2021/11/26 10:07:07;;;;;;;42.63;35.50;;;;;;;7.53;52.28;96424.06;8207348;28;20239;-86
2021/11/26 10:11:12;;;;;;;44.17;36.80;;;;;;;7.54;51.94;96418.03;8196347;28;20287;-84
2021/11/26 10:15:29;;;;;;;43.03;35.87;;;;;;;7.55;51.50;96400.81;8194010;28;20246;-84
2021/11/26 10:19:33;;;;;;;43.43;34.63;;;;;;;7.50;51.57;96395.09;8194681;28;20299;-85
2021/11/26 10:23:40;;;;;;;44.53;35.80;;;;;;;7.66;52.01;96384.75;8192988;28;20237;-85
2021/11/26 10:27:45;;;;;;;45.00;35.50;;;;;;;7.71;51.74;96369.81;8191665;28;20246;-85
2021/11/26 10:31:50;;;;;;;41.23;33.63;;;;;;;7.81;51.38;96365.81;8192235;28;20581;-87
2021/11/26 10:36:03;;;;;;;42.37;34.87;;;;;;;7.90;50.34;96357.53;8192542;28;20302;-82
2021/11/26 10:40:18;;;;;;;39.77;32.80;;;;;;;7.82;51.05;96355.41;8199944;28;20224;-84
2021/11/26 10:44:28;;;;;;;37.90;29.83;;;;;;;7.85;51.21;96338.13;8199004;28;20242;-84
2021/11/26 11:01:43;;;;;;;35.77;29.00;;;;;;;9.15;48.14;96321.47;8222293;28;20231;-84
2021/11/26 11:05:48;;;;;;;38.43;31.73;;;;;;;8.79;49.05;96317.75;8222191;28;20243;-84
2021/11/26 11:09:53;;;;;;;34.13;29.30;;;;;;;8.59;49.26;96313.84;8222416;28;20266;-84
2021/11/26 11:13:58;;;;;;;37.13;29.60;;;;;;;8.16;49.39;96299.22;8221890;28;20331;-84
2021/11/26 11:18:08;;;;;;;36.73;30.27;;;;;;;8.07;50.16;96288.66;8225544;28;20302;-83
2021/11/26 11:22:13;;;;;;;34.57;29.13;;;;;;;7.92;50.61;96280.94;8227085;28;20241;-84
2021/11/26 11:26:18;;;;;;;37.10;29.67;;;;;;;8.01;50.66;96279.53;8228481;28;20285;-84
2021/11/26 11:30:21;;;;;;;35.27;29.70;;;;;;;8.07;50.58;96270.63;8228374;28;20237;-84
2021/11/26 11:34:30;;;;;;;33.00;26.63;;;;;;;7.69;50.94;96256.56;8226296;28;20238;-84
2021/11/26 11:38:35;;;;;;;36.33;29.07;;;;;;;7.85;50.95;96258.22;8230391;28;20292;-84
2021/11/26 11:42:43;;;;;;;33.67;28.07;;;;;;;7.97;50.75;96242.81;8261525;28;20309;-84
2021/11/26 11:52:26;;;;;;;35.80;28.37;;;;;;;7.95;50.95;96221.47;8252563;28;20293;-83
2021/11/26 11:56:42;;;;;;;35.07;28.77;;;;;;;8.02;50.97;96214.19;8252606;28;20249;-84
2021/11/26 12:00:46;;;;;;;40.77;28.30;;;;;;;8.02;50.98;96216.78;8252791;28;20234;-84
2021/11/26 12:04:50;;;;;;;34.97;27.03;;;;;;;7.97;50.77;96211.06;8253388;28;20354;-84
2021/11/26 12:08:55;;;;;;;34.50;27.97;;;;;;;8.05;50.93;96205.44;8254690;28;20249;-83
2021/11/26 12:12:59;;;;;;;38.33;28.43;;;;;;;8.03;50.35;96203.78;8255375;28;20234;-83
2021/11/26 12:17:15;;;;;;;33.83;26.57;;;;;;;7.94;50.71;96196.63;8255771;28;20297;-83
2021/11/26 12:21:21;;;;;;;33.93;27.13;;;;;;;7.98;50.90;96205.00;8222701;28;20238;-83
2021/11/26 12:25:41;;;;;;;36.17;28.57;;;;;;;7.94;51.17;96190.63;8220473;28;20234;-85
2021/11/26 12:29:46;;;;;;;37.83;28.17;;;;;;;7.86;51.08;96172.22;8219757;28;20247;-84
2021/11/26 12:33:58;;;;;;;39.73;28.07;;;;;;;8.09;50.51;96174.22;8219398;28;20243;-83
2021/11/26 12:38:03;;;;;;;37.17;26.83;;;;;;;7.82;50.86;96158.72;8226017;28;20253;-86
2021/11/26 12:42:07;;;;;;;34.70;25.00;;;;;;;7.89;50.98;96154.00;8222590;28;20540;-86
2021/11/26 12:46:23;;;;;;;35.10;24.90;;;;;;;7.78;50.88;96152.09;8221101;28;20247;-86
2021/11/26 12:54:51;;;;;;;30.90;23.73;;;;;;;7.77;51.16;96138.38;8220749;28;20238;-84
2021/11/26 12:58:54;;;;;;;30.53;24.10;;;;;;;7.90;50.63;96122.16;8219114;28;20241;-84
2021/11/26 13:03:08;;;;;;;33.57;25.03;;;;;;;7.94;50.75;96118.44;8217624;28;20597;-88
2021/11/26 13:07:11;;;;;;;31.20;24.67;;;;;;;7.85;50.63;96113.91;8241238;28;20533;-85
2021/11/26 13:11:14;;;;;;;35.20;24.60;;;;;;;7.59;50.95;96104.28;8226209;28;20249;-86
2021/11/26 13:15:23;;;;;;;33.33;25.17;;;;;;;7.66;50.71;96101.34;8225731;28;20265;-86
2021/11/26 13:19:28;;;;;;;31.57;24.50;;;;;;;7.90;50.26;96093.78;8223081;28;20245;-85
2021/11/26 13:23:32;;;;;;;32.43;24.37;;;;;;;7.82;49.68;96081.41;8226930;28;20231;-86
2021/11/26 13:27:46;;;;;;;30.43;23.03;;;;;;;7.74;50.59;96070.75;8229243;28;20265;-86
2021/11/26 13:31:56;;;;;;;33.20;24.10;;;;;;;7.87;50.32;96066.47;8228141;28;20290;-86
2021/11/26 13:36:03;;;;;;;30.97;24.40;;;;;;;7.81;50.17;96065.13;8225566;28;20237;-85
2021/11/26 13:40:09;;;;;;;35.23;25.97;;;;;;;8.05;49.21;96048.16;8259171;28;20225;-85
2021/11/26 13:44:16;;;;;;;32.10;24.60;;;;;;;8.38;48.23;96051.13;8261614;28;20238;-85
2021/11/26 13:48:19;;;;;;;29.90;22.07;;;;;;;8.61;46.97;96046.22;8261638;28;20249;-86
2021/11/26 13:52:25;;;;;;;33.37;22.93;;;;;;;8.52;47.24;96028.78;8260018;28;20240;-86
2021/11/26 13:56:51;;;;;;;35.43;26.33;;;;;;;8.03;48.36;96035.38;8255651;28;20254;-86
2021/11/26 14:00:58;;;;;;;32.17;24.30;;;;;;;7.98;48.42;96029.72;8256318;28;20245;-86
2021/11/26 14:05:27;;;;;;;32.97;24.53;;;;;;;7.72;48.79;96026.22;8224204;28;20254;-85
2021/11/26 14:09:32;;;;;;;34.37;24.40;;;;;;;7.92;48.87;96028.34;8236710;28;20237;-85
2021/11/26 14:13:35;;;;;;;33.60;24.83;;;;;;;8.08;48.97;96027.38;8280136;28;20348;-86
2021/11/26 14:17:38;;;;;;;37.50;27.73;;;;;;;7.96;49.24;96019.50;8257423;28;20532;-86
2021/11/26 14:21:41;;;;;;;39.57;27.57;;;;;;;8.02;49.43;96020.84;8273663;28;20234;-86
2021/11/26 14:25:45;;;;;;;36.90;27.70;;;;;;;7.80;49.96;96011.09;8270463;28;20237;-85
2021/11/26 14:29:49;;;;;;;38.17;28.83;;;;;;;7.69;49.71;96011.81;8268699;28;20245;-86
2021/11/26 14:34:00;;;;;;;42.63;29.27;;;;;;;7.62;50.51;96019.06;8282357;28;20587;-86
2021/11/26 14:38:08;;;;;;;42.23;30.23;;;;;;;7.68;50.72;96009.31;8260441;28;20241;-85
2021/11/26 14:42:14;;;;;;;38.73;28.77;;;;;;;7.54;50.80;96017.91;8258045;28;20244;-84
2021/11/26 14:46:18;;;;;;;39.47;27.70;;;;;;;7.39;50.86;96010.22;8275806;28;20243;-85
2021/11/26 14:50:23;;;;;;;35.20;26.73;;;;;;;7.47;51.28;96009.75;8290841;28;20234;-85
2021/11/26 14:54:27;;;;;;;36.87;26.43;;;;;;;7.22;51.18;96003.56;8291720;28;20237;-86
2021/11/26 14:58:31;;;;;;;36.57;26.10;;;;;;;7.32;51.18;95996.06;8273827;28;20239;-84
2021/11/26 15:02:34;;;;;;;35.67;28.30;;;;;;;7.37;51.37;96000.97;8284083;28;20572;-84
2021/11/26 15:06:38;;;;;;;47.13;34.77;;;;;;;7.90;50.00;95988.13;8260219;28;20249;-85
2021/11/26 15:10:42;;;;;;;39.23;29.00;;;;;;;8.03;49.87;95986.41;8261605;28;20241;-86
2021/11/26 15:14:47;;;;;;;39.27;27.37;;;;;;;7.80;49.66;95990.47;8277391;28;20234;-86
2021/11/26 15:18:50;;;;;;;38.03;29.17;;;;;;;7.95;49.34;95986.91;8260752;28;20417;-85
2021/11/26 15:22:54;;;;;;;36.07;28.00;;;;;;;7.91;49.12;95982.88;8250745;28;20418;-85
2021/11/26 15:26:58;;;;;;;41.37;30.77;;;;;;;7.87;49.71;95978.84;8255447;28;20249;-85
2021/11/26 15:31:02;;;;;;;38.17;30.10;;;;;;;7.33;51.12;95984.03;8260474;28;20289;-85
2021/11/26 15:35:06;;;;;;;40.43;30.20;;;;;;;7.15;51.71;95983.44;8220204;28;20646;-84
2021/11/26 15:39:12;;;;;;;41.27;30.47;;;;;;;6.94;51.85;95980.44;8205038;28;20258;-84
2021/11/26 15:43:15;;;;;;;42.13;31.87;;;;;;;7.02;51.72;95981.59;8211369;28;20550;-85
2021/11/26 15:47:20;;;;;;;42.03;31.37;;;;;;;7.00;52.00;95980.88;8199950;28;20434;-85
2021/11/26 15:51:24;;;;;;;38.37;30.40;;;;;;;7.27;51.76;95969.78;8222325;28;20246;-85
2021/11/26 15:55:27;;;;;;;39.93;30.33;;;;;;;7.25;51.19;95976.78;8220200;28;20396;-85
2021/11/26 15:59:32;;;;;;;36.40;29.50;;;;;;;7.05;52.13;95973.72;8233255;28;20245;-85
2021/11/26 16:03:36;;;;;;;39.60;30.07;;;;;;;7.30;51.73;95972.19;8232841;28;20229;-84
2021/11/26 16:07:40;;;;;;;40.10;29.77;;;;;;;7.15;51.45;95963.66;8223446;28;20429;-85
2021/11/26 16:11:43;;;;;;;39.00;30.53;;;;;;;7.00;52.19;95962.03;8228978;28;20351;-86
2021/11/26 16:15:46;;;;;;;37.37;29.27;;;;;;;7.07;52.30;95944.50;8221832;28;20253;-84
2021/11/26 16:19:51;;;;;;;47.93;34.80;;;;;;;7.12;51.93;95951.00;8224891;28;20243;-85
2021/11/26 16:23:55;;;;;;;45.13;34.60;;;;;;;7.14;52.12;95946.59;8223067;28;20234;-84
2021/11/26 16:28:00;;;;;;;41.00;29.50;;;;;;;7.15;52.16;95944.81;8222101;28;20243;-84
2021/11/26 16:32:10;;;;;;;37.40;29.50;;;;;;;7.16;52.20;95943.88;8221394;28;20234;-83
2021/11/26 16:36:15;;;;;;;45.30;33.43;;;;;;;7.11;52.46;95941.63;8223857;28;20541;-84
2021/11/26 16:40:18;;;;;;;41.03;29.40;;;;;;;7.09;52.48;95935.75;8221268;28;20235;-85
2021/11/26 16:44:22;;;;;;;51.37;34.50;;;;;;;6.91;53.19;95942.88;8223549;28;20219;-85
2021/11/26 16:48:26;;;;;;;40.50;29.53;;;;;;;7.09;52.69;95938.31;8226970;28;20240;-84
2021/11/26 16:52:31;;;;;;;38.33;29.97;;;;;;;6.98;52.96;95943.31;8228434;28;20234;-85
2021/11/26 16:56:39;;;;;;;35.10;27.30;;;;;;;7.06;52.86;95935.91;8228582;28;20231;-85
2021/11/26 17:00:42;;;;;;;45.07;30.03;;;;;;;6.80;53.82;95935.00;8227822;28;20254;-85
2021/11/26 17:04:46;;;;;;;38.47;27.83;;;;;;;6.88;53.30;95925.03;8230314;28;20250;-85
2021/11/26 17:08:51;;;;;;;36.30;28.27;;;;;;;6.82;53.58;95917.72;8229733;28;20249;-82
2021/11/26 17:12:54;;;;;;;37.50;27.63;;;;;;;6.92;52.45;95928.25;8230045;28;20234;-85
2021/11/26 17:16:57;;;;;;;38.60;27.07;;;;;;;7.02;53.13;95912.13;8230119;28;20234;-84
2021/11/26 17:21:04;;;;;;;35.80;28.07;;;;;;;7.00;52.53;95910.56;8237799;28;20231;-88
2021/11/26 17:25:10;;;;;;;40.83;28.13;;;;;;;6.93;52.93;95923.00;8229196;28;20245;-84
2021/11/26 17:29:13;;;;;;;38.63;28.40;;;;;;;6.78;52.88;95901.63;8228911;28;20288;-84
2021/11/26 17:33:16;;;;;;;33.50;27.57;;;;;;;6.74;53.31;95905.31;8228572;28;20243;-83
2021/11/26 17:37:20;;;;;;;36.73;28.60;;;;;;;6.69;53.42;95904.75;8231821;28;20234;-89
2021/11/26 17:41:25;;;;;;;37.50;28.57;;;;;;;6.70;53.52;95897.88;8251264;28;20259;-86
2021/11/26 17:45:28;;;;;;;34.40;26.73;;;;;;;6.64;53.50;95892.19;8247251;28;20234;-87
2021/11/26 17:49:31;;;;;;;34.93;27.87;;;;;;;6.65;53.63;95898.16;8259028;28;20322;-87
2021/11/26 17:53:35;;;;;;;36.87;28.70;;;;;;;6.54;53.82;95898.00;8258214;28;20236;-87
2021/11/26 17:57:40;;;;;;;35.37;27.77;;;;;;;6.64;53.42;95883.63;8257658;28;20293;-89
2021/11/26 18:01:43;;;;;;;32.07;26.77;;;;;;;6.51;53.82;95882.75;8259250;28;20234;-86
2021/11/26 18:05:50;;;;;;;40.17;32.03;;;;;;;6.64;53.63;95883.63;8259650;28;20238;-87
2021/11/26 18:09:58;;;;;;;41.93;31.37;;;;;;;6.31;54.58;95865.97;8267176;28;20248;-87
2021/11/26 18:14:04;;;;;;;36.10;29.90;;;;;;;6.33;55.01;95875.22;8264538;28;20565;-90
2021/11/26 18:18:08;;;;;;;35.73;28.37;;;;;;;6.70;54.34;95859.28;8261321;28;20424;-87
2021/11/26 18:22:11;;;;;;;34.90;27.83;;;;;;;6.38;54.96;95855.22;8259643;28;20288;-88
2021/11/26 18:26:14;;;;;;;36.43;30.23;;;;;;;6.16;56.34;95858.25;8258760;28;20237;-87
2021/11/26 18:30:19;;;;;;;35.13;27.77;;;;;;;6.29;56.50;95845.50;8259032;28;20544;-86
2021/11/26 18:34:22;;;;;;;34.40;28.43;;;;;;;6.61;55.31;95838.38;8257692;28;20528;-87
2021/11/26 18:38:28;;;;;;;34.67;27.60;;;;;;;6.51;56.13;95824.44;8259053;28;20236;-87
2021/11/26 18:42:37;;;;;;;24.93;17.43;;;;;;;8.43;68.69;95825.63;8258647;28;20241;-89
2021/11/26 18:46:42;;;;;;;31.37;23.03;;;;;;;9.18;53.73;95815.94;8260467;28;20234;-88
2021/11/26 18:50:47;;;;;;;36.50;28.47;;;;;;;8.10;52.50;95814.91;8258848;28;20244;-86
2021/11/26 18:54:51;;;;;;;37.33;29.20;;;;;;;7.46;52.95;95814.94;8257449;28;20234;-86
2021/11/26 18:58:54;;;;;;;34.23;28.70;;;;;;;7.28;53.59;95808.44;8270562;28;20237;-85
2021/11/26 19:02:59;;;;;;;35.43;28.47;;;;;;;7.19;53.81;95800.38;8254198;28;20234;-85
2021/11/26 19:07:03;;;;;;;35.60;28.00;;;;;;;7.03;53.92;95803.13;8254339;28;20361;-85
2021/11/26 19:11:06;;;;;;;36.27;27.83;;;;;;;6.95;54.44;95797.66;8231024;28;20242;-86
2021/11/26 19:15:10;;;;;;;35.30;26.93;;;;;;;7.09;54.42;95801.06;8219614;28;20235;-85
2021/11/26 19:19:15;;;;;;;35.70;27.37;;;;;;;7.15;54.15;95791.19;8220769;28;20228;-85